sensor_id;sensor_type;location;lat;lon;timestamp;P1;durP1;ratioP1;P2;durP2;ratioP2
68910;SDS011;55953;51.650;-0.522;2022-12-29T00:00:11;23.50;;;2.80;;
68910;SDS011;55953;51.650;-0.522;2022-12-29T00:03:00;15.90;;;2.50;;
68910;SDS011;55953;51.650;-0.522;2022-12-29T00:05:28;15.90;;;2.00;;
68910;SDS011;55953;51.650;-0.522;2022-12-29T00:07:56;17.50;;;2.20;;
68910;SDS011;55953;51.650;-0.522;2022-12-29T00:10:24;19.50;;;2.40;;
68910;SDS011;55953;51.650;-0.522;2022-12-29T00:12:52;15.20;;;2.10;;
68910;SDS011;55953;51.650;-0.522;2022-12-29T00:15:38;20.90;;;2.50;;
68910;SDS011;55953;51.650;-0.522;2022-12-29T00:18:07;16.20;;;1.80;;
68910;SDS011;55953;51.650;-0.522;2022-12-29T00:20:36;12.30;;;2.00;;
68910;SDS011;55953;51.650;-0.522;2022-12-29T00:23:23;13.50;;;2.10;;
68910;SDS011;55953;51.650;-0.522;2022-12-29T00:26:13;16.50;;;2.10;;
68910;SDS011;55953;51.650;-0.522;2022-12-29T00:29:02;11.80;;;2.00;;
68910;SDS011;55953;51.650;-0.522;2022-12-29T00:31:49;17.00;;;2.70;;
68910;SDS011;55953;51.650;-0.522;2022-12-29T00:34:37;9.70;;;1.60;;
68910;SDS011;55953;51.650;-0.522;2022-12-29T00:37:23;17.70;;;2.70;;
68910;SDS011;55953;51.650;-0.522;2022-12-29T00:40:12;9.80;;;2.00;;
68910;SDS011;55953;51.650;-0.522;2022-12-29T00:42:58;21.50;;;3.00;;
68910;SDS011;55953;51.650;-0.522;2022-12-29T00:45:44;17.80;;;2.20;;
68910;SDS011;55953;51.650;-0.522;2022-12-29T00:48:12;14.90;;;2.30;;
68910;SDS011;55953;51.650;-0.522;2022-12-29T00:50:40;12.80;;;1.60;;
68910;SDS011;55953;51.650;-0.522;2022-12-29T00:53:08;15.50;;;3.50;;
68910;SDS011;55953;51.650;-0.522;2022-12-29T00:55:36;17.00;;;2.40;;
68910;SDS011;55953;51.650;-0.522;2022-12-29T00:58:05;23.60;;;3.10;;
68910;SDS011;55953;51.650;-0.522;2022-12-29T01:00:33;17.50;;;2.40;;
68910;SDS011;55953;51.650;-0.522;2022-12-29T01:03:01;14.10;;;2.50;;
68910;SDS011;55953;51.650;-0.522;2022-12-29T01:05:30;18.20;;;2.40;;
68910;SDS011;55953;51.650;-0.522;2022-12-29T01:07:58;19.30;;;3.50;;
68910;SDS011;55953;51.650;-0.522;2022-12-29T01:10:25;18.20;;;2.30;;
68910;SDS011;55953;51.650;-0.522;2022-12-29T01:12:53;18.20;;;2.80;;
68910;SDS011;55953;51.650;-0.522;2022-12-29T01:15:21;15.50;;;2.20;;
68910;SDS011;55953;51.650;-0.522;2022-12-29T01:17:49;22.00;;;2.40;;
68910;SDS011;55953;51.650;-0.522;2022-12-29T01:20:18;16.90;;;2.70;;
68910;SDS011;55953;51.650;-0.522;2022-12-29T01:22:45;16.80;;;2.70;;
68910;SDS011;55953;51.650;-0.522;2022-12-29T01:25:14;19.70;;;2.20;;
68910;SDS011;55953;51.650;-0.522;2022-12-29T01:27:42;16.40;;;2.30;;
68910;SDS011;55953;51.650;-0.522;2022-12-29T01:30:10;20.70;;;2.40;;
68910;SDS011;55953;51.650;-0.522;2022-12-29T01:32:38;14.90;;;2.20;;
68910;SDS011;55953;51.650;-0.522;2022-12-29T01:35:06;15.90;;;2.60;;
68910;SDS011;55953;51.650;-0.522;2022-12-29T01:37:35;17.30;;;2.50;;
68910;SDS011;55953;51.650;-0.522;2022-12-29T01:40:03;15.30;;;2.60;;
68910;SDS011;55953;51.650;-0.522;2022-12-29T01:42:32;15.30;;;2.60;;
68910;SDS011;55953;51.650;-0.522;2022-12-29T01:45:09;18.60;;;2.30;;
68910;SDS011;55953;51.650;-0.522;2022-12-29T01:47:44;18.60;;;3.00;;
68910;SDS011;55953;51.650;-0.522;2022-12-29T01:50:29;12.30;;;2.00;;
68910;SDS011;55953;51.650;-0.522;2022-12-29T01:53:07;16.80;;;2.10;;
68910;SDS011;55953;51.650;-0.522;2022-12-29T01:55:52;12.30;;;2.00;;
68910;SDS011;55953;51.650;-0.522;2022-12-29T01:58:27;17.00;;;2.10;;
68910;SDS011;55953;51.650;-0.522;2022-12-29T02:01:01;13.80;;;2.40;;
68910;SDS011;55953;51.650;-0.522;2022-12-29T02:03:30;12.10;;;1.90;;
68910;SDS011;55953;51.650;-0.522;2022-12-29T02:06:37;20.40;;;2.40;;
68910;SDS011;55953;51.650;-0.522;2022-12-29T02:09:10;12.10;;;1.70;;
68910;SDS011;55953;51.650;-0.522;2022-12-29T02:11:38;19.40;;;2.50;;
68910;SDS011;55953;51.650;-0.522;2022-12-29T02:14:11;15.20;;;2.30;;
68910;SDS011;55953;51.650;-0.522;2022-12-29T02:20:11;18.30;;;2.40;;
68910;SDS011;55953;51.650;-0.522;2022-12-29T02:29:35;12.30;;;1.70;;
68910;SDS011;55953;51.650;-0.522;2022-12-29T02:41:00;14.40;;;2.00;;
68910;SDS011;55953;51.650;-0.522;2022-12-29T02:44:12;16.00;;;2.50;;
68910;SDS011;55953;51.650;-0.522;2022-12-29T02:47:10;13.00;;;2.60;;
68910;SDS011;55953;51.650;-0.522;2022-12-29T02:49:49;23.50;;;2.90;;
68910;SDS011;55953;51.650;-0.522;2022-12-29T02:52:30;19.60;;;2.70;;
68910;SDS011;55953;51.650;-0.522;2022-12-29T02:55:03;18.50;;;2.60;;
68910;SDS011;55953;51.650;-0.522;2022-12-29T02:57:34;18.20;;;2.30;;
68910;SDS011;55953;51.650;-0.522;2022-12-29T03:00:09;17.50;;;2.90;;
68910;SDS011;55953;51.650;-0.522;2022-12-29T03:03:06;13.50;;;2.20;;
68910;SDS011;55953;51.650;-0.522;2022-12-29T03:12:05;20.40;;;2.30;;
68910;SDS011;55953;51.650;-0.522;2022-12-29T03:17:46;19.50;;;2.40;;
68910;SDS011;55953;51.650;-0.522;2022-12-29T03:20:31;16.10;;;2.70;;
68910;SDS011;55953;51.650;-0.522;2022-12-29T03:23:07;18.30;;;2.20;;
68910;SDS011;55953;51.650;-0.522;2022-12-29T03:25:40;16.70;;;2.70;;
68910;SDS011;55953;51.650;-0.522;2022-12-29T03:28:18;17.00;;;2.40;;
68910;SDS011;55953;51.650;-0.522;2022-12-29T03:30:50;19.50;;;2.90;;
68910;SDS011;55953;51.650;-0.522;2022-12-29T03:33:24;13.60;;;2.10;;
68910;SDS011;55953;51.650;-0.522;2022-12-29T03:35:59;18.50;;;2.60;;
68910;SDS011;55953;51.650;-0.522;2022-12-29T03:38:37;17.40;;;2.80;;
68910;SDS011;55953;51.650;-0.522;2022-12-29T03:41:15;20.20;;;2.60;;
68910;SDS011;55953;51.650;-0.522;2022-12-29T03:43:47;15.60;;;2.20;;
68910;SDS011;55953;51.650;-0.522;2022-12-29T03:46:15;20.60;;;2.30;;
68910;SDS011;55953;51.650;-0.522;2022-12-29T03:48:43;15.60;;;2.50;;
68910;SDS011;55953;51.650;-0.522;2022-12-29T03:51:10;15.80;;;2.60;;
68910;SDS011;55953;51.650;-0.522;2022-12-29T03:53:39;13.70;;;2.60;;
68910;SDS011;55953;51.650;-0.522;2022-12-29T03:56:08;16.70;;;2.30;;
68910;SDS011;55953;51.650;-0.522;2022-12-29T03:58:35;17.10;;;2.30;;
68910;SDS011;55953;51.650;-0.522;2022-12-29T04:01:09;24.20;;;2.90;;
68910;SDS011;55953;51.650;-0.522;2022-12-29T04:03:38;16.80;;;2.90;;
68910;SDS011;55953;51.650;-0.522;2022-12-29T04:06:06;20.20;;;2.10;;
68910;SDS011;55953;51.650;-0.522;2022-12-29T04:08:47;14.30;;;2.30;;
68910;SDS011;55953;51.650;-0.522;2022-12-29T04:11:15;18.80;;;2.40;;
68910;SDS011;55953;51.650;-0.522;2022-12-29T04:13:45;26.10;;;3.00;;
68910;SDS011;55953;51.650;-0.522;2022-12-29T04:16:16;20.90;;;2.80;;
68910;SDS011;55953;51.650;-0.522;2022-12-29T04:18:45;16.00;;;2.10;;
68910;SDS011;55953;51.650;-0.522;2022-12-29T04:21:13;19.20;;;2.10;;
68910;SDS011;55953;51.650;-0.522;2022-12-29T04:23:42;14.60;;;2.80;;
68910;SDS011;55953;51.650;-0.522;2022-12-29T04:26:10;15.40;;;2.20;;
68910;SDS011;55953;51.650;-0.522;2022-12-29T04:28:58;20.80;;;2.20;;
68910;SDS011;55953;51.650;-0.522;2022-12-29T04:31:35;16.90;;;2.30;;
68910;SDS011;55953;51.650;-0.522;2022-12-29T04:34:02;16.10;;;2.60;;
68910;SDS011;55953;51.650;-0.522;2022-12-29T04:36:31;20.00;;;3.10;;
68910;SDS011;55953;51.650;-0.522;2022-12-29T04:38:59;15.20;;;2.50;;
68910;SDS011;55953;51.650;-0.522;2022-12-29T04:41:27;18.70;;;2.30;;
68910;SDS011;55953;51.650;-0.522;2022-12-29T04:43:55;16.50;;;2.60;;
68910;SDS011;55953;51.650;-0.522;2022-12-29T04:46:46;24.40;;;2.50;;
68910;SDS011;55953;51.650;-0.522;2022-12-29T04:49:33;14.00;;;1.90;;
68910;SDS011;55953;51.650;-0.522;2022-12-29T04:52:19;21.50;;;2.90;;
68910;SDS011;55953;51.650;-0.522;2022-12-29T04:54:47;13.80;;;2.20;;
68910;SDS011;55953;51.650;-0.522;2022-12-29T05:02:19;15.70;;;2.10;;
68910;SDS011;55953;51.650;-0.522;2022-12-29T05:04:49;23.40;;;3.20;;
68910;SDS011;55953;51.650;-0.522;2022-12-29T05:07:18;18.90;;;2.00;;
68910;SDS011;55953;51.650;-0.522;2022-12-29T05:09:47;9.20;;;1.70;;
68910;SDS011;55953;51.650;-0.522;2022-12-29T05:12:15;10.20;;;1.40;;
68910;SDS011;55953;51.650;-0.522;2022-12-29T05:15:03;6.20;;;1.60;;
68910;SDS011;55953;51.650;-0.522;2022-12-29T05:17:34;12.90;;;1.70;;
68910;SDS011;55953;51.650;-0.522;2022-12-29T05:20:03;11.10;;;1.80;;
68910;SDS011;55953;51.650;-0.522;2022-12-29T05:22:33;6.70;;;1.40;;
68910;SDS011;55953;51.650;-0.522;2022-12-29T05:25:01;9.50;;;1.20;;
68910;SDS011;55953;51.650;-0.522;2022-12-29T05:27:32;8.30;;;1.30;;
68910;SDS011;55953;51.650;-0.522;2022-12-29T05:30:10;6.70;;;1.50;;
68910;SDS011;55953;51.650;-0.522;2022-12-29T05:32:39;7.30;;;1.20;;
68910;SDS011;55953;51.650;-0.522;2022-12-29T05:35:08;4.80;;;0.90;;
68910;SDS011;55953;51.650;-0.522;2022-12-29T05:37:36;5.20;;;1.00;;
68910;SDS011;55953;51.650;-0.522;2022-12-29T05:40:05;8.60;;;1.40;;
68910;SDS011;55953;51.650;-0.522;2022-12-29T05:42:34;5.20;;;1.00;;
68910;SDS011;55953;51.650;-0.522;2022-12-29T05:45:24;10.00;;;1.00;;
68910;SDS011;55953;51.650;-0.522;2022-12-29T05:48:03;6.90;;;1.10;;
68910;SDS011;55953;51.650;-0.522;2022-12-29T05:51:03;4.60;;;1.10;;
68910;SDS011;55953;51.650;-0.522;2022-12-29T05:53:47;3.70;;;1.10;;
68910;SDS011;55953;51.650;-0.522;2022-12-29T05:56:15;4.40;;;1.20;;
68910;SDS011;55953;51.650;-0.522;2022-12-29T05:58:45;5.90;;;1.00;;
68910;SDS011;55953;51.650;-0.522;2022-12-29T06:01:13;6.90;;;1.10;;
68910;SDS011;55953;51.650;-0.522;2022-12-29T06:03:41;4.80;;;0.80;;
68910;SDS011;55953;51.650;-0.522;2022-12-29T06:06:15;5.20;;;1.10;;
68910;SDS011;55953;51.650;-0.522;2022-12-29T06:08:44;6.00;;;0.90;;
68910;SDS011;55953;51.650;-0.522;2022-12-29T06:11:11;6.50;;;0.80;;
68910;SDS011;55953;51.650;-0.522;2022-12-29T06:13:44;3.80;;;0.80;;
68910;SDS011;55953;51.650;-0.522;2022-12-29T06:16:12;2.70;;;0.80;;
68910;SDS011;55953;51.650;-0.522;2022-12-29T06:18:42;3.90;;;0.70;;
68910;SDS011;55953;51.650;-0.522;2022-12-29T06:21:09;3.30;;;1.00;;
68910;SDS011;55953;51.650;-0.522;2022-12-29T06:23:37;2.20;;;0.60;;
68910;SDS011;55953;51.650;-0.522;2022-12-29T06:26:05;6.20;;;1.00;;
68910;SDS011;55953;51.650;-0.522;2022-12-29T06:28:33;3.20;;;1.30;;
68910;SDS011;55953;51.650;-0.522;2022-12-29T06:31:01;4.50;;;0.70;;
68910;SDS011;55953;51.650;-0.522;2022-12-29T06:33:30;5.50;;;0.80;;
68910;SDS011;55953;51.650;-0.522;2022-12-29T06:35:58;3.70;;;1.00;;
68910;SDS011;55953;51.650;-0.522;2022-12-29T06:38:26;4.40;;;1.00;;
68910;SDS011;55953;51.650;-0.522;2022-12-29T06:40:53;3.60;;;0.80;;
68910;SDS011;55953;51.650;-0.522;2022-12-29T06:43:21;4.30;;;0.90;;
68910;SDS011;55953;51.650;-0.522;2022-12-29T06:45:58;4.70;;;1.10;;
68910;SDS011;55953;51.650;-0.522;2022-12-29T06:48:26;5.20;;;0.70;;
68910;SDS011;55953;51.650;-0.522;2022-12-29T06:50:54;3.70;;;1.10;;
68910;SDS011;55953;51.650;-0.522;2022-12-29T06:53:21;4.40;;;0.80;;
68910;SDS011;55953;51.650;-0.522;2022-12-29T06:55:49;6.00;;;1.00;;
68910;SDS011;55953;51.650;-0.522;2022-12-29T06:58:18;5.10;;;0.80;;
68910;SDS011;55953;51.650;-0.522;2022-12-29T07:00:46;5.40;;;1.00;;
68910;SDS011;55953;51.650;-0.522;2022-12-29T07:03:14;8.40;;;1.10;;
68910;SDS011;55953;51.650;-0.522;2022-12-29T07:05:42;5.60;;;1.10;;
68910;SDS011;55953;51.650;-0.522;2022-12-29T07:08:10;7.80;;;1.10;;
68910;SDS011;55953;51.650;-0.522;2022-12-29T07:10:38;6.20;;;0.90;;
68910;SDS011;55953;51.650;-0.522;2022-12-29T07:13:06;4.00;;;0.90;;
68910;SDS011;55953;51.650;-0.522;2022-12-29T07:15:36;7.50;;;0.80;;
68910;SDS011;55953;51.650;-0.522;2022-12-29T07:18:05;4.60;;;1.00;;
68910;SDS011;55953;51.650;-0.522;2022-12-29T07:20:33;4.60;;;1.00;;
68910;SDS011;55953;51.650;-0.522;2022-12-29T07:23:02;5.30;;;1.10;;
68910;SDS011;55953;51.650;-0.522;2022-12-29T07:25:30;10.00;;;1.20;;
68910;SDS011;55953;51.650;-0.522;2022-12-29T07:27:58;7.20;;;1.40;;
68910;SDS011;55953;51.650;-0.522;2022-12-29T07:30:26;4.40;;;2.10;;
68910;SDS011;55953;51.650;-0.522;2022-12-29T07:32:53;9.90;;;1.50;;
68910;SDS011;55953;51.650;-0.522;2022-12-29T07:35:21;7.30;;;1.20;;
68910;SDS011;55953;51.650;-0.522;2022-12-29T07:37:49;4.90;;;0.90;;
68910;SDS011;55953;51.650;-0.522;2022-12-29T07:40:17;9.50;;;1.30;;
68910;SDS011;55953;51.650;-0.522;2022-12-29T07:42:45;11.50;;;1.40;;
68910;SDS011;55953;51.650;-0.522;2022-12-29T07:45:15;3.60;;;1.20;;
68910;SDS011;55953;51.650;-0.522;2022-12-29T07:47:56;6.40;;;1.10;;
68910;SDS011;55953;51.650;-0.522;2022-12-29T07:50:24;6.30;;;1.20;;
68910;SDS011;55953;51.650;-0.522;2022-12-29T07:52:51;5.50;;;1.00;;
68910;SDS011;55953;51.650;-0.522;2022-12-29T07:55:19;6.10;;;1.20;;
68910;SDS011;55953;51.650;-0.522;2022-12-29T07:57:47;9.70;;;1.20;;
68910;SDS011;55953;51.650;-0.522;2022-12-29T08:00:15;13.50;;;1.20;;
68910;SDS011;55953;51.650;-0.522;2022-12-29T08:02:43;6.20;;;1.40;;
68910;SDS011;55953;51.650;-0.522;2022-12-29T08:05:11;10.30;;;1.60;;
68910;SDS011;55953;51.650;-0.522;2022-12-29T08:07:39;7.50;;;1.40;;
68910;SDS011;55953;51.650;-0.522;2022-12-29T08:10:07;9.00;;;1.40;;
68910;SDS011;55953;51.650;-0.522;2022-12-29T08:12:35;4.60;;;0.90;;
68910;SDS011;55953;51.650;-0.522;2022-12-29T08:15:04;7.70;;;1.00;;
68910;SDS011;55953;51.650;-0.522;2022-12-29T08:17:34;7.60;;;1.30;;
68910;SDS011;55953;51.650;-0.522;2022-12-29T08:20:03;9.90;;;1.20;;
68910;SDS011;55953;51.650;-0.522;2022-12-29T08:22:32;12.80;;;1.20;;
68910;SDS011;55953;51.650;-0.522;2022-12-29T08:25:00;9.90;;;1.80;;
68910;SDS011;55953;51.650;-0.522;2022-12-29T08:27:27;8.00;;;1.30;;
68910;SDS011;55953;51.650;-0.522;2022-12-29T08:29:55;10.10;;;1.40;;
68910;SDS011;55953;51.650;-0.522;2022-12-29T08:32:23;6.80;;;1.10;;
68910;SDS011;55953;51.650;-0.522;2022-12-29T08:34:51;9.30;;;1.30;;
68910;SDS011;55953;51.650;-0.522;2022-12-29T08:37:19;7.10;;;1.20;;
68910;SDS011;55953;51.650;-0.522;2022-12-29T08:39:53;9.00;;;1.20;;
68910;SDS011;55953;51.650;-0.522;2022-12-29T08:42:21;4.30;;;0.90;;
68910;SDS011;55953;51.650;-0.522;2022-12-29T08:44:50;8.10;;;1.10;;
68910;SDS011;55953;51.650;-0.522;2022-12-29T08:47:17;3.30;;;0.90;;
68910;SDS011;55953;51.650;-0.522;2022-12-29T08:49:45;6.80;;;1.00;;
68910;SDS011;55953;51.650;-0.522;2022-12-29T08:52:13;7.90;;;1.10;;
68910;SDS011;55953;51.650;-0.522;2022-12-29T08:54:40;7.10;;;1.00;;
68910;SDS011;55953;51.650;-0.522;2022-12-29T08:57:08;7.60;;;0.90;;
68910;SDS011;55953;51.650;-0.522;2022-12-29T08:59:42;8.00;;;1.20;;
68910;SDS011;55953;51.650;-0.522;2022-12-29T09:02:11;5.60;;;1.30;;
68910;SDS011;55953;51.650;-0.522;2022-12-29T09:04:45;7.30;;;1.40;;
68910;SDS011;55953;51.650;-0.522;2022-12-29T09:07:13;6.20;;;0.90;;
68910;SDS011;55953;51.650;-0.522;2022-12-29T09:09:41;4.90;;;1.00;;
68910;SDS011;55953;51.650;-0.522;2022-12-29T09:12:09;8.10;;;1.40;;
68910;SDS011;55953;51.650;-0.522;2022-12-29T09:14:36;9.30;;;1.30;;
68910;SDS011;55953;51.650;-0.522;2022-12-29T09:17:04;6.10;;;1.10;;
68910;SDS011;55953;51.650;-0.522;2022-12-29T09:19:51;4.10;;;0.90;;
68910;SDS011;55953;51.650;-0.522;2022-12-29T09:22:19;5.80;;;1.10;;
68910;SDS011;55953;51.650;-0.522;2022-12-29T09:24:47;9.40;;;1.20;;
68910;SDS011;55953;51.650;-0.522;2022-12-29T09:27:14;3.50;;;0.80;;
68910;SDS011;55953;51.650;-0.522;2022-12-29T09:29:42;8.00;;;1.00;;
68910;SDS011;55953;51.650;-0.522;2022-12-29T09:32:10;5.10;;;0.70;;
68910;SDS011;55953;51.650;-0.522;2022-12-29T09:34:45;4.20;;;0.90;;
68910;SDS011;55953;51.650;-0.522;2022-12-29T09:37:12;3.40;;;0.80;;
68910;SDS011;55953;51.650;-0.522;2022-12-29T09:39:40;3.30;;;0.70;;
68910;SDS011;55953;51.650;-0.522;2022-12-29T09:42:22;2.40;;;0.80;;
68910;SDS011;55953;51.650;-0.522;2022-12-29T09:45:13;3.20;;;0.60;;
68910;SDS011;55953;51.650;-0.522;2022-12-29T09:47:49;2.00;;;0.60;;
68910;SDS011;55953;51.650;-0.522;2022-12-29T09:50:27;2.00;;;0.80;;
68910;SDS011;55953;51.650;-0.522;2022-12-29T09:53:05;2.10;;;0.40;;
68910;SDS011;55953;51.650;-0.522;2022-12-29T09:55:53;1.80;;;0.60;;
68910;SDS011;55953;51.650;-0.522;2022-12-29T09:58:30;5.60;;;0.80;;
68910;SDS011;55953;51.650;-0.522;2022-12-29T10:01:16;4.90;;;0.60;;
68910;SDS011;55953;51.650;-0.522;2022-12-29T10:03:56;1.90;;;0.60;;
68910;SDS011;55953;51.650;-0.522;2022-12-29T10:06:32;2.80;;;0.70;;
68910;SDS011;55953;51.650;-0.522;2022-12-29T10:09:53;3.70;;;0.70;;
68910;SDS011;55953;51.650;-0.522;2022-12-29T10:16:14;2.90;;;0.60;;
68910;SDS011;55953;51.650;-0.522;2022-12-29T10:19:00;3.20;;;0.70;;
68910;SDS011;55953;51.650;-0.522;2022-12-29T10:24:55;2.00;;;0.60;;
68910;SDS011;55953;51.650;-0.522;2022-12-29T10:27:24;2.10;;;0.50;;
68910;SDS011;55953;51.650;-0.522;2022-12-29T10:29:55;2.20;;;0.50;;
68910;SDS011;55953;51.650;-0.522;2022-12-29T10:32:47;3.00;;;0.60;;
68910;SDS011;55953;51.650;-0.522;2022-12-29T10:35:25;3.30;;;0.60;;
68910;SDS011;55953;51.650;-0.522;2022-12-29T10:38:04;3.40;;;0.60;;
68910;SDS011;55953;51.650;-0.522;2022-12-29T10:40:45;3.10;;;0.50;;
68910;SDS011;55953;51.650;-0.522;2022-12-29T10:46:02;3.50;;;0.90;;
68910;SDS011;55953;51.650;-0.522;2022-12-29T10:48:34;2.40;;;0.70;;
68910;SDS011;55953;51.650;-0.522;2022-12-29T10:51:05;1.70;;;0.60;;
68910;SDS011;55953;51.650;-0.522;2022-12-29T10:53:43;5.70;;;1.00;;
68910;SDS011;55953;51.650;-0.522;2022-12-29T10:58:55;4.20;;;0.60;;
68910;SDS011;55953;51.650;-0.522;2022-12-29T11:01:32;2.80;;;0.80;;
68910;SDS011;55953;51.650;-0.522;2022-12-29T11:04:55;5.30;;;0.70;;
68910;SDS011;55953;51.650;-0.522;2022-12-29T11:07:30;4.30;;;0.80;;
68910;SDS011;55953;51.650;-0.522;2022-12-29T11:15:39;6.40;;;1.30;;
68910;SDS011;55953;51.650;-0.522;2022-12-29T11:18:32;6.50;;;1.00;;
68910;SDS011;55953;51.650;-0.522;2022-12-29T11:21:31;3.30;;;0.60;;
68910;SDS011;55953;51.650;-0.522;2022-12-29T11:24:28;5.20;;;0.90;;
68910;SDS011;55953;51.650;-0.522;2022-12-29T11:27:15;4.50;;;1.20;;
68910;SDS011;55953;51.650;-0.522;2022-12-29T11:29:46;5.60;;;0.90;;
68910;SDS011;55953;51.650;-0.522;2022-12-29T11:32:24;8.10;;;1.20;;
68910;SDS011;55953;51.650;-0.522;2022-12-29T11:34:57;4.80;;;1.00;;
68910;SDS011;55953;51.650;-0.522;2022-12-29T11:37:30;4.30;;;0.90;;
68910;SDS011;55953;51.650;-0.522;2022-12-29T11:40:19;4.70;;;1.10;;
68910;SDS011;55953;51.650;-0.522;2022-12-29T11:42:52;5.50;;;0.70;;
68910;SDS011;55953;51.650;-0.522;2022-12-29T11:45:25;10.40;;;1.30;;
68910;SDS011;55953;51.650;-0.522;2022-12-29T11:47:59;4.90;;;1.30;;
68910;SDS011;55953;51.650;-0.522;2022-12-29T11:50:35;10.60;;;1.50;;
68910;SDS011;55953;51.650;-0.522;2022-12-29T11:53:16;7.90;;;1.50;;
68910;SDS011;55953;51.650;-0.522;2022-12-29T11:56:15;6.40;;;1.90;;
68910;SDS011;55953;51.650;-0.522;2022-12-29T11:58:44;6.90;;;1.20;;
68910;SDS011;55953;51.650;-0.522;2022-12-29T12:01:17;7.70;;;1.00;;
68910;SDS011;55953;51.650;-0.522;2022-12-29T12:04:13;11.60;;;1.40;;
68910;SDS011;55953;51.650;-0.522;2022-12-29T12:07:00;6.30;;;1.30;;
68910;SDS011;55953;51.650;-0.522;2022-12-29T12:09:49;8.90;;;1.30;;
68910;SDS011;55953;51.650;-0.522;2022-12-29T12:12:48;7.10;;;1.20;;
68910;SDS011;55953;51.650;-0.522;2022-12-29T12:15:30;7.60;;;1.60;;
68910;SDS011;55953;51.650;-0.522;2022-12-29T12:18:32;7.50;;;1.20;;
68910;SDS011;55953;51.650;-0.522;2022-12-29T12:21:13;9.60;;;1.30;;
68910;SDS011;55953;51.650;-0.522;2022-12-29T12:24:00;8.10;;;1.60;;
68910;SDS011;55953;51.650;-0.522;2022-12-29T12:26:53;8.00;;;1.40;;
68910;SDS011;55953;51.650;-0.522;2022-12-29T12:29:34;9.30;;;1.40;;
68910;SDS011;55953;51.650;-0.522;2022-12-29T12:32:23;8.70;;;1.40;;
68910;SDS011;55953;51.650;-0.522;2022-12-29T12:35:15;5.00;;;1.10;;
68910;SDS011;55953;51.650;-0.522;2022-12-29T12:41:16;7.30;;;1.60;;
68910;SDS011;55953;51.650;-0.522;2022-12-29T12:47:26;8.40;;;1.10;;
68910;SDS011;55953;51.650;-0.522;2022-12-29T12:53:19;5.50;;;1.30;;
68910;SDS011;55953;51.650;-0.522;2022-12-29T12:58:56;6.30;;;1.40;;
68910;SDS011;55953;51.650;-0.522;2022-12-29T13:04:47;6.20;;;1.00;;
68910;SDS011;55953;51.650;-0.522;2022-12-29T13:07:52;8.30;;;1.20;;
68910;SDS011;55953;51.650;-0.522;2022-12-29T13:27:17;6.30;;;1.60;;
68910;SDS011;55953;51.650;-0.522;2022-12-29T13:30:10;9.10;;;1.90;;
68910;SDS011;55953;51.650;-0.522;2022-12-29T13:32:53;4.80;;;1.20;;
68910;SDS011;55953;51.650;-0.522;2022-12-29T13:36:04;6.00;;;1.20;;
68910;SDS011;55953;51.650;-0.522;2022-12-29T13:38:44;7.60;;;1.40;;
68910;SDS011;55953;51.650;-0.522;2022-12-29T13:41:25;6.40;;;1.50;;
68910;SDS011;55953;51.650;-0.522;2022-12-29T13:44:00;6.80;;;1.40;;
68910;SDS011;55953;51.650;-0.522;2022-12-29T13:46:35;7.70;;;1.30;;
68910;SDS011;55953;51.650;-0.522;2022-12-29T13:49:15;12.00;;;1.70;;
68910;SDS011;55953;51.650;-0.522;2022-12-29T13:51:58;9.50;;;1.50;;
68910;SDS011;55953;51.650;-0.522;2022-12-29T13:55:02;6.80;;;1.20;;
68910;SDS011;55953;51.650;-0.522;2022-12-29T13:57:55;7.40;;;1.20;;
68910;SDS011;55953;51.650;-0.522;2022-12-29T14:03:52;6.70;;;1.30;;
68910;SDS011;55953;51.650;-0.522;2022-12-29T14:06:25;9.00;;;1.30;;
68910;SDS011;55953;51.650;-0.522;2022-12-29T14:08:58;4.90;;;1.10;;
68910;SDS011;55953;51.650;-0.522;2022-12-29T14:11:34;7.70;;;1.40;;
68910;SDS011;55953;51.650;-0.522;2022-12-29T14:14:21;7.20;;;1.30;;
68910;SDS011;55953;51.650;-0.522;2022-12-29T14:16:49;12.30;;;1.80;;
68910;SDS011;55953;51.650;-0.522;2022-12-29T14:19:25;12.30;;;1.50;;
68910;SDS011;55953;51.650;-0.522;2022-12-29T14:22:01;8.40;;;1.20;;
68910;SDS011;55953;51.650;-0.522;2022-12-29T14:34:56;7.20;;;1.90;;
68910;SDS011;55953;51.650;-0.522;2022-12-29T14:37:30;7.50;;;1.60;;
68910;SDS011;55953;51.650;-0.522;2022-12-29T14:40:25;6.80;;;1.40;;
68910;SDS011;55953;51.650;-0.522;2022-12-29T14:42:55;6.80;;;1.60;;
68910;SDS011;55953;51.650;-0.522;2022-12-29T14:45:28;8.20;;;1.70;;
68910;SDS011;55953;51.650;-0.522;2022-12-29T14:47:57;7.50;;;1.40;;
68910;SDS011;55953;51.650;-0.522;2022-12-29T14:50:39;9.50;;;1.70;;
68910;SDS011;55953;51.650;-0.522;2022-12-29T14:56:23;10.30;;;1.30;;
68910;SDS011;55953;51.650;-0.522;2022-12-29T14:58:58;4.50;;;1.00;;
68910;SDS011;55953;51.650;-0.522;2022-12-29T15:01:40;8.10;;;1.30;;
68910;SDS011;55953;51.650;-0.522;2022-12-29T15:04:17;8.30;;;1.60;;
68910;SDS011;55953;51.650;-0.522;2022-12-29T15:06:49;7.40;;;1.40;;
68910;SDS011;55953;51.650;-0.522;2022-12-29T15:09:23;7.10;;;1.50;;
68910;SDS011;55953;51.650;-0.522;2022-12-29T15:12:15;11.50;;;1.40;;
68910;SDS011;55953;51.650;-0.522;2022-12-29T15:17:52;3.50;;;1.10;;
68910;SDS011;55953;51.650;-0.522;2022-12-29T15:20:25;6.90;;;1.30;;
68910;SDS011;55953;51.650;-0.522;2022-12-29T15:23:09;7.00;;;1.40;;
68910;SDS011;55953;51.650;-0.522;2022-12-29T15:26:06;8.70;;;1.40;;
68910;SDS011;55953;51.650;-0.522;2022-12-29T15:28:43;8.60;;;1.20;;
68910;SDS011;55953;51.650;-0.522;2022-12-29T15:31:24;9.10;;;1.40;;
68910;SDS011;55953;51.650;-0.522;2022-12-29T15:34:10;9.70;;;2.20;;
68910;SDS011;55953;51.650;-0.522;2022-12-29T15:36:40;10.80;;;2.20;;
68910;SDS011;55953;51.650;-0.522;2022-12-29T15:39:28;6.30;;;2.40;;
68910;SDS011;55953;51.650;-0.522;2022-12-29T15:44:54;5.80;;;1.80;;
68910;SDS011;55953;51.650;-0.522;2022-12-29T15:47:36;12.20;;;1.70;;
68910;SDS011;55953;51.650;-0.522;2022-12-29T15:50:30;5.40;;;1.30;;
68910;SDS011;55953;51.650;-0.522;2022-12-29T15:53:01;12.00;;;2.00;;
68910;SDS011;55953;51.650;-0.522;2022-12-29T15:55:40;8.10;;;1.80;;
68910;SDS011;55953;51.650;-0.522;2022-12-29T15:58:23;13.40;;;2.30;;
68910;SDS011;55953;51.650;-0.522;2022-12-29T16:00:56;8.90;;;1.70;;
68910;SDS011;55953;51.650;-0.522;2022-12-29T16:03:38;6.60;;;1.60;;
68910;SDS011;55953;51.650;-0.522;2022-12-29T16:09:06;6.90;;;1.30;;
68910;SDS011;55953;51.650;-0.522;2022-12-29T16:11:45;4.50;;;1.20;;
68910;SDS011;55953;51.650;-0.522;2022-12-29T16:14:37;8.70;;;1.70;;
68910;SDS011;55953;51.650;-0.522;2022-12-29T16:17:15;9.10;;;2.80;;
68910;SDS011;55953;51.650;-0.522;2022-12-29T16:19:51;14.00;;;2.10;;
68910;SDS011;55953;51.650;-0.522;2022-12-29T16:22:35;7.60;;;2.00;;
68910;SDS011;55953;51.650;-0.522;2022-12-29T16:27:55;8.00;;;1.80;;
68910;SDS011;55953;51.650;-0.522;2022-12-29T16:30:28;9.30;;;1.90;;
68910;SDS011;55953;51.650;-0.522;2022-12-29T16:33:02;7.20;;;1.90;;
68910;SDS011;55953;51.650;-0.522;2022-12-29T16:35:45;8.90;;;2.20;;
68910;SDS011;55953;51.650;-0.522;2022-12-29T16:38:20;5.50;;;1.60;;
68910;SDS011;55953;51.650;-0.522;2022-12-29T16:40:53;9.30;;;2.20;;
68910;SDS011;55953;51.650;-0.522;2022-12-29T16:43:32;9.70;;;1.40;;
68910;SDS011;55953;51.650;-0.522;2022-12-29T16:46:18;10.50;;;2.30;;
68910;SDS011;55953;51.650;-0.522;2022-12-29T16:48:56;11.60;;;2.00;;
68910;SDS011;55953;51.650;-0.522;2022-12-29T16:51:33;11.10;;;1.80;;
68910;SDS011;55953;51.650;-0.522;2022-12-29T16:54:04;13.00;;;1.90;;
68910;SDS011;55953;51.650;-0.522;2022-12-29T16:56:34;9.20;;;2.60;;
68910;SDS011;55953;51.650;-0.522;2022-12-29T17:01:44;7.10;;;2.10;;
68910;SDS011;55953;51.650;-0.522;2022-12-29T17:04:13;8.50;;;3.20;;
68910;SDS011;55953;51.650;-0.522;2022-12-29T17:06:41;12.60;;;2.30;;
68910;SDS011;55953;51.650;-0.522;2022-12-29T17:09:27;11.10;;;3.60;;
68910;SDS011;55953;51.650;-0.522;2022-12-29T17:11:58;8.90;;;2.00;;